SANT/TUC METAR and TAF weather

Enter ICAO airport designator
Station Type Date Time Source
SANT METAR 2021/05/12 05:00 UTC NOAA

SANT 120500Z 34006KT 8000 NSC 09/08 Q1023


Station Type Date Time Source
SANT Decoded METAR 2021/05/12 05:00 UTC NOAA

Tucuman Aerodrome, Argentina (SANT) 26-51S 065-06W 450M
May 12, 2021 - 01:00 AM EDT / 2021.05.12 0500 UTC
Wind: from the NNW (340 degrees) at 7 MPH (6 KT):0
Visibility: 4 mile(s):0
Temperature: 48 F (9 C)
Dew Point: 46 F (8 C)
Relative Humidity: 93%
Pressure (altimeter): 30.21 in. Hg (1023 hPa)
ob: SANT 120500Z 34006KT 8000 NSC 09/08 Q1023
cycle: 5

Station Type Date Time Source
SANT TAF 2021/05/12 06:06 UTC NOAA

TAF TAF SANT 120500Z 1206/1306 VRB03KT 2000 DZ BKN005 OVC015 TX23/1218Z TN11/1210Z
BECMG 1212/1215 05010KT 9999 NSW SCT010 BKN060

Example: see airport list